Time;durP1;ratioP1;P1;durP2;ratioP2;P2;SDS_P1;SDS_P2;PMS_P1;PMS_P2;Temp;Humidity;BMP_temperature;BMP_pressure;BME280_temperature;BME280_humidity;BME280_pressure;Samples;Min_cycle;Max_cycle;Signal;HPM_P1;HPM_P2
2022/11/19 00:00:54;;;;;;;165.65;70.53;;;8.60;99.90;;;;;;6246198;23;20446;-77
2022/11/19 00:03:21;;;;;;;117.45;51.35;;;8.50;99.90;;;;;;6246078;23;19996;-78
2022/11/19 00:05:48;;;;;;;90.32;42.10;;;8.40;99.90;;;;;;6244087;23;20042;-77
2022/11/19 00:08:17;;;;;;;86.50;41.65;;;8.40;99.90;;;;;;6243248;23;20050;-76
2022/11/19 00:10:43;;;;;;;76.82;37.28;;;8.30;99.90;;;;;;6245244;23;19996;-77
2022/11/19 00:13:09;;;;;;;55.97;27.13;;;8.30;99.90;;;;;;6245247;23;20035;-78
2022/11/19 00:15:36;;;;;;;34.55;19.48;;;8.20;99.90;;;;;;6245025;23;20420;-77
2022/11/19 00:18:04;;;;;;;38.08;21.30;;;8.20;99.90;;;;;;6244415;23;20019;-77
2022/11/19 00:20:31;;;;;;;36.63;21.35;;;8.10;99.90;;;;;;6246138;23;19996;-77
2022/11/19 00:22:57;;;;;;;34.47;22.27;;;8.10;99.90;;;;;;6245731;23;20003;-78
2022/11/19 00:25:24;;;;;;;37.67;23.25;;;8.00;99.90;;;;;;6246083;23;20488;-78
2022/11/19 00:27:51;;;;;;;39.53;22.38;;;8.00;99.90;;;;;;6245916;23;20074;-78
2022/11/19 00:30:18;;;;;;;41.60;23.10;;;8.00;99.90;;;;;;6245328;23;19988;-77
2022/11/19 00:32:44;;;;;;;59.15;31.15;;;7.90;99.90;;;;;;6246290;22;20079;-77
2022/11/19 00:35:10;;;;;;;95.95;54.13;;;7.90;99.90;;;;;;6246309;23;20004;-78
2022/11/19 00:37:36;;;;;;;98.75;56.38;;;7.80;99.90;;;;;;6245578;23;20023;-78
2022/11/19 00:40:02;;;;;;;107.13;62.65;;;7.80;99.90;;;;;;6246039;23;20413;-77
2022/11/19 00:42:28;;;;;;;106.70;61.75;;;7.80;99.90;;;;;;6246064;23;20406;-78
2022/11/19 00:44:54;;;;;;;97.95;57.42;;;7.70;99.90;;;;;;6245597;23;20047;-77
2022/11/19 00:47:19;;;;;;;114.35;62.72;;;7.70;99.90;;;;;;6246239;23;20011;-77
2022/11/19 00:49:45;;;;;;;114.10;63.30;;;7.70;99.90;;;;;;6246576;23;19999;-78
2022/11/19 00:52:11;;;;;;;121.97;63.53;;;7.70;99.90;;;;;;6246073;23;19996;-77
2022/11/19 00:54:37;;;;;;;122.55;65.03;;;7.60;99.90;;;;;;6246386;23;20467;-78
2022/11/19 00:57:03;;;;;;;114.03;59.75;;;7.60;99.90;;;;;;6245456;23;19993;-78
2022/11/19 00:59:28;;;;;;;93.85;52.83;;;7.50;99.90;;;;;;6246573;23;20435;-78
2022/11/19 01:01:54;;;;;;;103.07;53.42;;;7.50;99.90;;;;;;6245965;23;20008;-77
2022/11/19 01:04:20;;;;;;;103.43;51.40;;;7.50;99.90;;;;;;6246219;23;20401;-78
2022/11/19 01:06:46;;;;;;;100.30;51.92;;;7.40;99.90;;;;;;6246487;23;20471;-77
2022/11/19 01:09:12;;;;;;;99.63;50.65;;;7.40;99.90;;;;;;6247579;23;20064;-78
2022/11/19 01:11:38;;;;;;;83.55;44.88;;;7.40;99.90;;;;;;6247748;23;19996;-78
2022/11/19 01:14:04;;;;;;;74.13;40.15;;;7.40;99.90;;;;;;6247735;23;20339;-78
2022/11/19 01:16:40;;;;;;;76.10;39.70;;;7.30;99.90;;;;;;6248401;23;20051;-78
2022/11/19 01:19:08;;;;;;;81.78;43.67;;;7.30;99.90;;;;;;6221036;23;19992;-78
2022/11/19 01:21:35;;;;;;;88.25;50.90;;;7.30;99.90;;;;;;6247767;23;20020;-78
2022/11/19 01:24:02;;;;;;;89.35;47.70;;;7.20;99.90;;;;;;6247376;23;20004;-77
2022/11/19 01:26:28;;;;;;;155.55;72.45;;;7.20;99.90;;;;;;6247189;23;19996;-77
2022/11/19 01:28:54;;;;;;;187.75;90.60;;;7.20;99.90;;;;;;6247059;23;19995;-77
2022/11/19 01:31:29;;;;;;;253.25;128.88;;;7.20;99.90;;;;;;6256166;22;20015;-77
2022/11/19 01:33:55;;;;;;;218.35;111.15;;;7.10;99.90;;;;;;6251225;22;20000;-77
2022/11/19 01:36:27;;;;;;;250.48;121.55;;;7.10;99.90;;;;;;6278108;22;19992;-77
2022/11/19 01:38:53;;;;;;;248.60;125.25;;;7.10;99.90;;;;;;6278445;22;19996;-77
2022/11/19 01:41:21;;;;;;;201.40;101.57;;;7.10;99.90;;;;;;6251310;22;20472;-77
2022/11/19 01:43:50;;;;;;;243.20;113.00;;;7.10;99.90;;;;;;6277914;22;20002;-77
2022/11/19 01:46:19;;;;;;;220.20;109.95;;;7.10;99.90;;;;;;6278302;22;20075;-77
2022/11/19 01:48:56;;;;;;;236.38;109.28;;;7.10;99.90;;;;;;6278152;22;20412;-77
2022/11/19 01:51:30;;;;;;;241.95;112.32;;;7.10;99.90;;;;;;6277911;22;19992;-77
2022/11/19 01:54:04;;;;;;;207.63;100.20;;;7.10;99.90;;;;;;6277878;22;20337;-78
2022/11/19 01:56:30;;;;;;;212.82;101.32;;;7.10;99.90;;;;;;6278014;22;19999;-78
2022/11/19 01:59:07;;;;;;;203.65;103.25;;;7.10;99.90;;;;;;6278303;22;19988;-77
2022/11/19 02:01:33;;;;;;;192.57;98.90;;;7.10;99.90;;;;;;6278279;22;19995;-78
2022/11/19 02:04:01;;;;;;;237.95;116.43;;;7.00;99.90;;;;;;6277914;22;19996;-76
2022/11/19 02:06:29;;;;;;;240.75;121.55;;;7.10;99.90;;;;;;6278204;22;20026;-78
2022/11/19 02:08:54;;;;;;;243.52;128.43;;;7.10;99.90;;;;;;6278032;22;19996;-77
2022/11/19 02:11:26;;;;;;;256.67;135.38;;;7.00;99.90;;;;;;6277870;22;20423;-77
2022/11/19 02:13:52;;;;;;;229.73;127.15;;;7.00;99.90;;;;;;6278420;22;20046;-77
2022/11/19 02:16:38;;;;;;;235.77;128.70;;;7.00;99.90;;;;;;6277969;22;19995;-77
2022/11/19 02:19:27;;;;;;;208.68;107.80;;;6.90;99.90;;;;;;6277916;22;20029;-77
2022/11/19 02:22:19;;;;;;;203.18;107.40;;;6.90;99.90;;;;;;6277490;22;20075;-77
2022/11/19 02:25:04;;;;;;;201.25;106.03;;;6.80;99.90;;;;;;6277406;22;20027;-77
2022/11/19 02:27:29;;;;;;;182.13;95.43;;;6.90;99.90;;;;;;6278000;22;19996;-77
2022/11/19 02:30:03;;;;;;;181.48;94.50;;;6.90;99.90;;;;;;6277914;22;19995;-77
2022/11/19 02:32:48;;;;;;;189.60;93.75;;;6.90;99.90;;;;;;6277702;22;20012;-77
2022/11/19 02:35:40;;;;;;;235.75;109.28;;;6.90;99.90;;;;;;6277834;22;20041;-77
2022/11/19 02:38:18;;;;;;;213.93;103.00;;;6.90;99.90;;;;;;6277233;22;19992;-77
2022/11/19 02:46:52;;;;;;;206.85;111.05;;;6.90;99.90;;;;;;6277308;22;20083;-77
2022/11/19 02:49:22;;;;;;;203.63;109.07;;;7.00;99.90;;;;;;6277998;22;19996;-78
2022/11/19 02:51:49;;;;;;;195.23;107.13;;;7.00;99.90;;;;;;6278264;22;20026;-77
2022/11/19 02:54:18;;;;;;;256.15;132.52;;;6.90;99.90;;;;;;6277661;22;19992;-78
2022/11/19 02:56:52;;;;;;;233.25;123.00;;;6.80;99.90;;;;;;6277615;22;19992;-77
2022/11/19 03:05:27;;;;;;;206.07;104.35;;;6.90;99.90;;;;;;6277733;22;20083;-77
2022/11/19 03:07:54;;;;;;;185.45;96.47;;;6.90;99.90;;;;;;6277795;22;19996;-77
2022/11/19 03:10:23;;;;;;;165.80;86.22;;;6.80;99.90;;;;;;6277809;22;20003;-77
2022/11/19 03:16:40;;;;;;;153.82;79.45;;;6.80;99.90;;;;;;6277659;22;20027;-78
2022/11/19 03:18:52;;;;;;;151.65;75.90;;;6.80;99.90;;;;;;6276834;22;20006;-77
2022/11/19 03:21:20;;;;;;;148.05;78.65;;;6.80;99.90;;;;;;6250278;22;20000;-77
2022/11/19 03:24:24;;;;;;;153.50;76.05;;;6.70;99.90;;;;;;6277408;22;20278;-77
2022/11/19 03:26:57;;;;;;;149.77;72.95;;;6.70;99.90;;;;;;6276988;22;19995;-77
2022/11/19 03:29:26;;;;;;;143.77;68.25;;;6.70;99.90;;;;;;6277622;22;19988;-77
2022/11/19 03:31:58;;;;;;;126.47;67.10;;;6.70;99.90;;;;;;6260727;22;20355;-77
2022/11/19 03:34:26;;;;;;;137.38;71.50;;;6.60;99.90;;;;;;6246382;23;20075;-77
2022/11/19 03:36:55;;;;;;;115.07;62.45;;;6.60;99.90;;;;;;6246205;23;20070;-76
2022/11/19 03:39:21;;;;;;;124.47;63.00;;;6.50;99.90;;;;;;6220094;23;20008;-78
2022/11/19 03:41:50;;;;;;;135.52;66.95;;;6.50;99.90;;;;;;6219106;23;19996;-77
2022/11/19 03:44:23;;;;;;;126.45;69.60;;;6.50;99.90;;;;;;6246094;23;20064;-78
2022/11/19 03:46:54;;;;;;;142.13;70.60;;;6.50;99.90;;;;;;6245509;23;20003;-77
2022/11/19 03:49:27;;;;;;;132.15;74.15;;;6.50;99.90;;;;;;6245504;23;20070;-77
2022/11/19 03:52:10;;;;;;;147.32;77.47;;;6.50;99.90;;;;;;6246629;23;19996;-77
2022/11/19 03:54:37;;;;;;;144.30;75.15;;;6.60;99.90;;;;;;6246769;23;20489;-77
2022/11/19 03:57:06;;;;;;;144.70;75.90;;;6.50;99.90;;;;;;6246254;23;19989;-77
2022/11/19 03:59:32;;;;;;;135.38;74.18;;;6.60;99.90;;;;;;6246443;23;20433;-77
2022/11/19 04:02:02;;;;;;;146.18;75.78;;;6.50;99.90;;;;;;6246356;23;19996;-78
2022/11/19 04:04:37;;;;;;;186.25;93.20;;;6.60;99.90;;;;;;6246269;23;20083;-77
2022/11/19 04:07:14;;;;;;;161.40;78.93;;;6.50;99.90;;;;;;6246255;23;20000;-76
2022/11/19 04:09:41;;;;;;;141.95;71.78;;;6.50;99.90;;;;;;6245974;23;19999;-77
2022/11/19 04:12:13;;;;;;;127.47;65.32;;;6.50;99.90;;;;;;6245943;23;20400;-77
2022/11/19 04:14:39;;;;;;;120.45;63.15;;;6.60;99.90;;;;;;6245492;23;20000;-77
2022/11/19 04:17:04;;;;;;;124.03;61.88;;;6.50;99.90;;;;;;6219289;23;20004;-76
2022/11/19 04:19:30;;;;;;;129.18;62.35;;;6.60;99.90;;;;;;6245947;23;20425;-77
2022/11/19 04:21:56;;;;;;;117.10;58.63;;;6.50;99.90;;;;;;6245569;23;19997;-77
2022/11/19 04:24:22;;;;;;;126.88;63.50;;;6.50;99.90;;;;;;6245927;23;20031;-77
2022/11/19 04:26:48;;;;;;;128.88;67.72;;;6.50;99.90;;;;;;6246062;23;19997;-77
2022/11/19 04:29:13;;;;;;;135.50;70.30;;;6.60;99.90;;;;;;6245760;23;19997;-77
2022/11/19 04:31:39;;;;;;;153.68;75.40;;;6.60;99.90;;;;;;6232019;22;20534;-77
2022/11/19 04:34:05;;;;;;;136.10;73.35;;;6.60;99.90;;;;;;6276866;22;20404;-77
2022/11/19 04:36:31;;;;;;;147.55;72.35;;;6.60;99.90;;;;;;6276497;22;19996;-77
2022/11/19 04:38:57;;;;;;;144.38;73.85;;;6.60;99.90;;;;;;6276238;22;20070;-77
2022/11/19 04:41:22;;;;;;;148.18;77.00;;;6.60;99.90;;;;;;6276682;22;20347;-78
2022/11/19 04:43:48;;;;;;;157.48;83.85;;;6.60;99.90;;;;;;6250752;22;20026;-78
2022/11/19 04:46:14;;;;;;;161.65;84.38;;;6.50;99.90;;;;;;6278951;22;19998;-77
2022/11/19 04:48:40;;;;;;;166.85;78.20;;;6.50;99.90;;;;;;6279191;22;19992;-77
2022/11/19 04:51:05;;;;;;;127.68;62.03;;;6.60;99.90;;;;;;6278678;22;20114;-77
2022/11/19 04:53:31;;;;;;;91.00;46.63;;;6.50;99.90;;;;;;6278980;22;20069;-78
2022/11/19 04:55:57;;;;;;;73.47;37.58;;;6.50;99.90;;;;;;6279100;22;19991;-77
2022/11/19 04:58:23;;;;;;;51.15;30.27;;;6.50;99.90;;;;;;6278619;22;20067;-77
2022/11/19 05:00:48;;;;;;;46.75;27.67;;;6.50;99.90;;;;;;6278904;22;20409;-78
2022/11/19 05:03:14;;;;;;;48.92;27.50;;;6.50;99.90;;;;;;6278572;22;20015;-77
2022/11/19 05:05:40;;;;;;;45.08;26.88;;;6.50;99.90;;;;;;6278896;22;20036;-77
2022/11/19 05:08:06;;;;;;;41.03;24.80;;;6.60;99.90;;;;;;6279123;22;19996;-77
2022/11/19 05:10:32;;;;;;;48.80;26.73;;;6.60;99.90;;;;;;6278653;22;19995;-76
2022/11/19 05:12:57;;;;;;;86.93;46.85;;;6.60;99.90;;;;;;6278484;22;19999;-77
2022/11/19 05:15:23;;;;;;;85.30;45.13;;;6.70;99.90;;;;;;6279074;22;20006;-77
2022/11/19 05:17:49;;;;;;;104.68;56.97;;;6.70;99.90;;;;;;6251765;22;20031;-77
2022/11/19 05:20:15;;;;;;;87.90;47.60;;;6.70;99.90;;;;;;6278335;22;19999;-77
2022/11/19 05:22:41;;;;;;;169.98;83.18;;;6.80;99.90;;;;;;6278817;22;20075;-77
2022/11/19 05:25:07;;;;;;;108.57;57.75;;;6.80;99.90;;;;;;6278436;22;19995;-78
2022/11/19 05:27:33;;;;;;;83.43;46.22;;;6.80;99.90;;;;;;6278340;22;20511;-77
2022/11/19 05:29:59;;;;;;;88.70;47.30;;;6.80;99.90;;;;;;6278360;22;19991;-77
2022/11/19 05:32:24;;;;;;;76.70;43.28;;;6.80;99.90;;;;;;6228570;23;20012;-77
2022/11/19 05:34:50;;;;;;;86.72;46.65;;;6.80;99.90;;;;;;6247383;23;20291;-78
2022/11/19 05:37:16;;;;;;;95.38;52.72;;;6.90;99.90;;;;;;6247887;23;20473;-77
2022/11/19 05:39:42;;;;;;;132.35;77.22;;;6.90;99.90;;;;;;6247985;23;20063;-78
2022/11/19 05:42:07;;;;;;;124.72;70.18;;;6.90;99.90;;;;;;6247927;23;19992;-77
2022/11/19 05:44:33;;;;;;;116.43;60.35;;;6.90;99.90;;;;;;6247668;23;20007;-76
2022/11/19 05:46:59;;;;;;;111.60;57.47;;;6.90;99.90;;;;;;6247442;23;20027;-77
2022/11/19 05:49:25;;;;;;;100.13;51.17;;;6.90;99.90;;;;;;6247668;23;20297;-75
2022/11/19 05:51:51;;;;;;;89.82;47.13;;;7.00;99.90;;;;;;6247555;23;20071;-76
2022/11/19 05:54:17;;;;;;;98.45;47.92;;;7.00;99.90;;;;;;6246823;23;20444;-77
2022/11/19 05:56:43;;;;;;;130.90;56.40;;;7.00;99.90;;;;;;6247369;23;20337;-76
2022/11/19 05:59:09;;;;;;;160.70;73.28;;;7.00;99.90;;;;;;6247626;23;20003;-77
2022/11/19 06:01:34;;;;;;;140.25;62.55;;;7.00;99.90;;;;;;6246775;23;20286;-77
2022/11/19 06:04:00;;;;;;;122.00;57.20;;;7.00;99.90;;;;;;6247758;23;19996;-76
2022/11/19 06:06:26;;;;;;;125.75;57.72;;;7.00;99.90;;;;;;6247634;23;20011;-82
2022/11/19 06:08:52;;;;;;;124.95;59.63;;;7.00;99.90;;;;;;6247237;23;20463;-77
2022/11/19 06:14:02;;;;;;;151.48;71.43;;;7.10;99.90;;;;;;6247428;23;20050;-77
2022/11/19 06:16:28;;;;;;;157.50;76.90;;;7.10;99.90;;;;;;6220640;23;20409;-78
2022/11/19 06:18:54;;;;;;;174.45;84.53;;;7.10;99.90;;;;;;6247673;23;20019;-78
2022/11/19 06:21:20;;;;;;;196.88;95.43;;;7.10;99.90;;;;;;6248015;23;19992;-77
2022/11/19 06:23:46;;;;;;;300.02;138.85;;;7.20;99.90;;;;;;6246950;23;20004;-78
2022/11/19 06:26:24;;;;;;;536.28;302.77;;;7.30;99.90;;;;;;6245579;23;20111;-78
2022/11/19 06:28:50;;;;;;;385.38;220.60;;;7.30;99.90;;;;;;6247465;23;20003;-76
2022/11/19 06:31:16;;;;;;;386.63;221.80;;;7.30;99.90;;;;;;6247550;22;20008;-77
2022/11/19 06:33:42;;;;;;;453.02;251.90;;;7.40;99.90;;;;;;6247031;23;20002;-77
2022/11/19 06:36:08;;;;;;;506.02;268.58;;;7.40;99.90;;;;;;6247397;23;20072;-77
2022/11/19 06:38:34;;;;;;;351.45;177.05;;;7.50;99.90;;;;;;6247586;23;20011;-77
2022/11/19 06:41:00;;;;;;;207.98;101.78;;;7.50;99.90;;;;;;6247506;23;19996;-77
2022/11/19 06:43:26;;;;;;;216.90;110.57;;;7.50;99.90;;;;;;6247300;23;20417;-76
2022/11/19 06:45:51;;;;;;;241.35;124.05;;;7.50;99.90;;;;;;6246987;23;20428;-77
2022/11/19 06:48:17;;;;;;;168.15;89.82;;;7.60;99.90;;;;;;6247375;23;19992;-78
2022/11/19 06:50:46;;;;;;;146.43;80.63;;;7.60;99.90;;;;;;6247244;23;20398;-77
2022/11/19 06:53:12;;;;;;;118.85;64.57;;;7.60;99.90;;;;;;6247086;23;19993;-77
2022/11/19 06:55:38;;;;;;;95.55;55.92;;;7.70;99.90;;;;;;6247383;23;20019;-77
2022/11/19 06:58:05;;;;;;;82.75;48.83;;;7.70;99.90;;;;;;6246583;23;19992;-77
2022/11/19 07:00:32;;;;;;;121.68;74.60;;;7.70;99.90;;;;;;6247387;23;20000;-76
2022/11/19 07:02:58;;;;;;;105.90;61.65;;;7.70;99.90;;;;;;6247542;23;20412;-76
2022/11/19 07:05:24;;;;;;;109.70;61.35;;;7.70;99.90;;;;;;6246941;23;20024;-77
2022/11/19 07:07:50;;;;;;;99.30;58.10;;;7.80;99.90;;;;;;6220149;23;20007;-76
2022/11/19 07:10:16;;;;;;;91.93;52.17;;;7.80;99.90;;;;;;6246470;23;20039;-77
2022/11/19 07:12:42;;;;;;;94.50;52.35;;;7.80;99.90;;;;;;6246669;23;20333;-77
2022/11/19 07:15:08;;;;;;;122.65;67.18;;;7.80;99.90;;;;;;6246535;23;20003;-77
2022/11/19 07:17:34;;;;;;;131.27;70.32;;;7.80;99.90;;;;;;6247162;23;20297;-77
2022/11/19 07:20:03;;;;;;;142.35;84.13;;;7.80;99.90;;;;;;6245215;23;20466;-78
2022/11/19 07:22:30;;;;;;;147.05;81.35;;;7.80;99.90;;;;;;6247337;23;20003;-77
2022/11/19 07:24:55;;;;;;;146.55;85.32;;;7.80;99.90;;;;;;6245702;23;20000;-77
2022/11/19 07:27:21;;;;;;;114.47;67.18;;;7.80;99.90;;;;;;6247099;23;20313;-77
2022/11/19 07:29:47;;;;;;;166.30;93.03;;;7.80;99.90;;;;;;6246557;23;19996;-77
2022/11/19 07:32:13;;;;;;;207.45;122.53;;;7.80;99.90;;;;;;6266935;22;20003;-76
2022/11/19 07:34:39;;;;;;;128.88;79.07;;;7.80;99.90;;;;;;6277670;22;20003;-77
2022/11/19 07:37:04;;;;;;;113.78;67.53;;;7.80;99.90;;;;;;6277299;22;20473;-77
2022/11/19 07:39:30;;;;;;;128.00;74.70;;;7.80;99.90;;;;;;6277289;22;20592;-78
2022/11/19 07:44:40;;;;;;;210.43;128.82;;;8.00;99.90;;;;;;6277256;22;20087;-77
2022/11/19 07:47:07;;;;;;;228.45;137.25;;;8.00;99.90;;;;;;6277296;22;20016;-76
2022/11/19 07:49:32;;;;;;;183.82;115.43;;;8.00;99.90;;;;;;6277586;22;20285;-77
2022/11/19 07:51:58;;;;;;;149.00;79.90;;;8.00;99.90;;;;;;6277435;22;20412;-77
2022/11/19 07:54:24;;;;;;;167.80;99.78;;;8.10;99.90;;;;;;6277395;22;20054;-76
2022/11/19 07:56:50;;;;;;;165.63;88.03;;;8.10;99.90;;;;;;6277511;22;20471;-77
2022/11/19 07:59:16;;;;;;;125.93;64.47;;;8.10;99.90;;;;;;6249894;22;20023;-77
2022/11/19 08:01:42;;;;;;;124.25;63.72;;;8.20;99.90;;;;;;6276080;22;19998;-77
2022/11/19 08:04:08;;;;;;;112.13;62.03;;;8.20;99.90;;;;;;6276578;22;20424;-77
2022/11/19 08:06:34;;;;;;;122.63;65.68;;;8.20;99.90;;;;;;6277599;22;20006;-77
2022/11/19 08:09:01;;;;;;;116.88;61.38;;;8.30;99.90;;;;;;6277154;22;20019;-76
2022/11/19 08:11:27;;;;;;;105.57;57.90;;;8.30;99.90;;;;;;6277372;22;20424;-77
2022/11/19 08:13:53;;;;;;;93.55;52.30;;;8.30;99.90;;;;;;6250020;22;19995;-77
2022/11/19 08:19:08;;;;;;;90.10;50.85;;;8.40;99.90;;;;;;6276757;22;20316;-77
2022/11/19 08:21:35;;;;;;;119.93;68.53;;;8.50;99.90;;;;;;6276828;22;19995;-76
2022/11/19 08:24:02;;;;;;;98.47;52.90;;;8.50;99.90;;;;;;6276896;22;20010;-76
2022/11/19 08:26:28;;;;;;;96.55;56.28;;;8.50;99.90;;;;;;6277248;22;20000;-77
2022/11/19 08:28:54;;;;;;;104.90;56.20;;;8.50;99.90;;;;;;6277051;22;20000;-76
2022/11/19 08:31:19;;;;;;;104.70;57.28;;;8.60;99.90;;;;;;6277176;22;20012;-76
2022/11/19 08:33:45;;;;;;;131.48;72.05;;;8.60;99.90;;;;;;6276821;22;20004;-77
2022/11/19 08:36:11;;;;;;;106.18;62.47;;;8.60;99.90;;;;;;6277007;22;20071;-77
2022/11/19 08:38:37;;;;;;;136.82;86.75;;;8.70;99.90;;;;;;6277322;22;19991;-77
2022/11/19 08:43:47;;;;;;;62.83;35.10;;;8.80;99.90;;;;;;6276723;22;20054;-76
2022/11/19 08:46:13;;;;;;;71.05;41.55;;;8.80;99.90;;;;;;6277139;22;20008;-77
2022/11/19 08:48:39;;;;;;;100.85;55.42;;;8.80;99.90;;;;;;6277308;22;20027;-78
2022/11/19 08:51:06;;;;;;;95.90;51.65;;;8.90;99.90;;;;;;6277319;22;19992;-76
2022/11/19 08:53:32;;;;;;;67.30;40.60;;;8.90;99.90;;;;;;6277092;22;20050;-76
2022/11/19 08:55:58;;;;;;;81.20;54.25;;;8.90;99.90;;;;;;6276938;22;19995;-76
2022/11/19 08:58:24;;;;;;;93.90;54.30;;;8.90;99.90;;;;;;6277285;22;20070;-77
2022/11/19 09:00:50;;;;;;;81.93;52.13;;;8.90;99.90;;;;;;6277097;22;19991;-77
2022/11/19 09:03:16;;;;;;;65.43;41.10;;;8.90;99.90;;;;;;6276909;22;20051;-78
2022/11/19 09:05:42;;;;;;;107.28;65.47;;;8.90;99.90;;;;;;6277014;22;20000;-77
2022/11/19 09:08:08;;;;;;;99.30;59.47;;;9.00;99.90;;;;;;6276951;22;20308;-76
2022/11/19 09:10:36;;;;;;;77.50;35.83;;;9.10;99.90;;;;;;6276586;22;20362;-76
2022/11/19 09:13:02;;;;;;;64.78;35.25;;;9.00;99.90;;;;;;6249751;22;19999;-76
2022/11/19 09:15:27;;;;;;;155.98;65.95;;;9.00;99.90;;;;;;6249863;22;20003;-76
2022/11/19 09:17:53;;;;;;;171.70;75.80;;;9.00;99.90;;;;;;6276820;22;20071;-76
2022/11/19 09:20:19;;;;;;;62.05;31.52;;;9.00;99.90;;;;;;6277159;22;19999;-77
2022/11/19 09:22:45;;;;;;;50.35;24.83;;;9.10;99.90;;;;;;6276972;22;19988;-76
2022/11/19 09:25:10;;;;;;;52.83;26.90;;;9.10;99.90;;;;;;6276399;22;20003;-76
2022/11/19 09:27:37;;;;;;;54.03;24.92;;;9.00;99.90;;;;;;6277301;22;20006;-77
2022/11/19 09:30:04;;;;;;;45.67;26.42;;;9.10;99.90;;;;;;6250233;22;20335;-76
2022/11/19 09:32:30;;;;;;;67.63;37.38;;;9.10;99.90;;;;;;6278850;22;20281;-77
2022/11/19 09:34:56;;;;;;;64.65;35.92;;;9.20;99.90;;;;;;6278454;22;20023;-76
2022/11/19 09:37:22;;;;;;;61.85;32.38;;;9.20;99.90;;;;;;6278437;22;19996;-75
2022/11/19 09:39:47;;;;;;;69.68;39.25;;;9.20;99.90;;;;;;6278245;22;20071;-77
2022/11/19 09:42:17;;;;;;;77.40;37.88;;;9.20;99.90;;;;;;6278655;22;19991;-76
2022/11/19 09:45:11;;;;;;;66.90;34.17;;;9.20;99.90;;;;;;6251562;22;20312;-77
2022/11/19 09:48:02;;;;;;;54.70;30.00;;;9.30;99.90;;;;;;6278984;22;20073;-76
2022/11/19 09:50:32;;;;;;;58.50;30.00;;;9.30;99.90;;;;;;6197526;22;20003;-77
2022/11/19 09:53:08;;;;;;;64.05;35.30;;;9.30;99.90;;;;;;6278577;22;20205;-76
2022/11/19 09:55:41;;;;;;;47.80;25.45;;;9.30;99.90;;;;;;6278777;22;19999;-77
2022/11/19 09:58:17;;;;;;;44.45;24.92;;;9.30;99.90;;;;;;6278521;22;19992;-76
2022/11/19 10:00:44;;;;;;;49.70;24.58;;;9.30;99.90;;;;;;6278532;22;20015;-76
2022/11/19 10:03:16;;;;;;;44.90;22.88;;;9.30;99.90;;;;;;6278477;22;19996;-77
2022/11/19 10:06:11;;;;;;;60.92;28.15;;;9.30;99.90;;;;;;6278908;22;20003;-78
2022/11/19 10:08:57;;;;;;;55.53;28.30;;;9.30;99.90;;;;;;6278269;22;20000;-76
2022/11/19 10:11:35;;;;;;;114.20;58.92;;;9.30;99.90;;;;;;6278477;22;20305;-75
2022/11/19 10:14:00;;;;;;;496.20;285.77;;;9.40;99.90;;;;;;6278325;22;19995;-76
2022/11/19 10:16:52;;;;;;;152.65;79.55;;;9.40;99.90;;;;;;6278058;22;20007;-76
2022/11/19 10:19:42;;;;;;;305.50;198.55;;;9.40;99.90;;;;;;6278780;22;19996;-77
2022/11/19 10:22:36;;;;;;;387.75;219.25;;;9.40;99.90;;;;;;6277917;22;19999;-76
2022/11/19 10:25:26;;;;;;;140.57;84.03;;;9.40;99.90;;;;;;6277323;22;20031;-77
2022/11/19 10:28:20;;;;;;;114.10;70.60;;;9.40;99.90;;;;;;6278139;22;19992;-76
2022/11/19 10:30:57;;;;;;;167.73;62.33;;;9.40;99.90;;;;;;6276556;22;20424;-76
2022/11/19 10:33:35;;;;;;;147.82;63.97;;;9.40;99.90;;;;;;6278029;22;20015;-76
2022/11/19 10:36:10;;;;;;;136.75;55.10;;;9.50;99.90;;;;;;6251103;22;20026;-76
2022/11/19 10:39:13;;;;;;;97.55;40.88;;;9.50;99.90;;;;;;6278226;22;20419;-76
2022/11/19 10:41:57;;;;;;;100.82;49.40;;;9.50;99.90;;;;;;6261130;22;20018;-76
2022/11/19 10:44:40;;;;;;;169.13;91.50;;;9.40;99.90;;;;;;6278286;22;20451;-77
2022/11/19 10:47:21;;;;;;;183.55;94.75;;;9.40;99.90;;;;;;6277744;22;19996;-76
2022/11/19 10:49:52;;;;;;;87.30;41.13;;;9.40;99.90;;;;;;6278052;22;19995;-77
2022/11/19 10:52:41;;;;;;;142.60;80.25;;;9.50;99.90;;;;;;6250899;22;20646;-77
2022/11/19 10:55:33;;;;;;;69.57;39.38;;;9.50;99.90;;;;;;6278248;22;20427;-76
2022/11/19 10:58:06;;;;;;;76.75;36.45;;;9.60;99.90;;;;;;6278207;22;20041;-76
2022/11/19 11:00:33;;;;;;;37.80;22.15;;;9.60;99.90;;;;;;6277992;22;20117;-77
2022/11/19 11:03:03;;;;;;;41.55;24.58;;;9.70;99.90;;;;;;6277766;22;19987;-76
2022/11/19 11:05:29;;;;;;;96.53;58.70;;;9.60;99.90;;;;;;6278041;22;20003;-76
2022/11/19 11:07:58;;;;;;;50.13;27.88;;;9.60;99.90;;;;;;6250835;22;20328;-76
2022/11/19 11:10:29;;;;;;;86.63;45.20;;;9.60;99.90;;;;;;6277360;22;20002;-76
2022/11/19 11:15:50;;;;;;;86.45;50.03;;;9.70;99.90;;;;;;6277466;22;20010;-76
2022/11/19 11:18:18;;;;;;;87.82;48.65;;;9.80;99.90;;;;;;6250854;22;20007;-76
2022/11/19 11:20:51;;;;;;;69.32;39.63;;;9.80;99.90;;;;;;6277385;22;20418;-77
2022/11/19 11:23:27;;;;;;;68.38;35.85;;;9.80;99.90;;;;;;6277665;22;19991;-76
2022/11/19 11:26:03;;;;;;;34.00;19.50;;;9.80;99.90;;;;;;6277280;22;20004;-77
2022/11/19 11:28:28;;;;;;;63.80;33.92;;;9.80;99.90;;;;;;6277705;22;19995;-77
2022/11/19 11:31:08;;;;;;;49.83;28.13;;;9.80;99.90;;;;;;6277167;22;19992;-77
2022/11/19 11:33:40;;;;;;;70.03;39.90;;;9.80;99.90;;;;;;6277753;22;19996;-76
2022/11/19 11:36:12;;;;;;;176.25;81.07;;;9.80;99.90;;;;;;6277614;22;19995;-76
2022/11/19 11:38:45;;;;;;;66.65;29.67;;;9.80;99.90;;;;;;6277179;22;19988;-76
2022/11/19 11:41:17;;;;;;;90.60;44.85;;;9.80;99.90;;;;;;6277573;22;19999;-77
2022/11/19 11:44:00;;;;;;;;;;;9.80;99.90;;;;;;6278212;22;19999;-76
2022/11/19 11:46:33;;;;;;;74.38;38.67;;;9.80;99.90;;;;;;6277718;22;19895;-76
2022/11/19 11:49:00;;;;;;;81.15;44.10;;;9.80;99.90;;;;;;6277596;22;20002;-76
2022/11/19 11:51:34;;;;;;;112.47;55.35;;;9.90;99.90;;;;;;6276967;22;20340;-76
2022/11/19 11:54:20;;;;;;;82.15;47.65;;;9.90;99.90;;;;;;6276998;22;20433;-76
2022/11/19 11:56:47;;;;;;;177.90;97.78;;;9.90;99.90;;;;;;6277477;22;19992;-76
2022/11/19 11:59:18;;;;;;;216.88;122.00;;;9.90;99.90;;;;;;6276802;22;19999;-77
2022/11/19 12:01:52;;;;;;;69.13;39.53;;;9.80;99.90;;;;;;6277643;22;19988;-77
2022/11/19 12:04:18;;;;;;;81.30;41.88;;;9.80;99.90;;;;;;6277655;22;20003;-77
2022/11/19 12:07:12;;;;;;;100.18;56.13;;;9.80;99.90;;;;;;6277320;22;20297;-76
2022/11/19 12:10:02;;;;;;;109.63;60.17;;;9.80;99.90;;;;;;6234044;22;20356;-76
2022/11/19 12:12:48;;;;;;;126.47;78.63;;;9.80;99.90;;;;;;6277444;22;19992;-76
2022/11/19 12:15:48;;;;;;;85.45;54.10;;;9.80;99.90;;;;;;6277606;22;19995;-77
2022/11/19 12:18:19;;;;;;;115.45;63.22;;;9.80;99.90;;;;;;6153708;23;20041;-77
2022/11/19 12:21:09;;;;;;;111.15;61.83;;;9.80;99.90;;;;;;6153678;23;19994;-77
2022/11/19 12:23:49;;;;;;;157.32;76.95;;;9.80;99.90;;;;;;6153771;23;20004;-76
2022/11/19 12:26:45;;;;;;;84.15;47.15;;;9.90;99.90;;;;;;6153579;23;20086;-77
2022/11/19 12:29:35;;;;;;;144.68;68.18;;;9.80;99.90;;;;;;6153775;23;19994;-77
2022/11/19 12:32:28;;;;;;;203.63;88.88;;;9.80;99.90;;;;;;6170190;23;20453;-77
2022/11/19 12:35:03;;;;;;;119.22;55.85;;;9.80;99.90;;;;;;6182731;23;20040;-76
2022/11/19 12:37:50;;;;;;;145.07;65.78;;;9.90;99.90;;;;;;6182627;23;20044;-77
2022/11/19 12:40:59;;;;;;;173.90;72.50;;;9.90;99.90;;;;;;6158198;23;19997;-77
2022/11/19 12:43:37;;;;;;;309.45;116.90;;;9.90;99.90;;;;;;6182953;23;20008;-76
2022/11/19 12:46:36;;;;;;;144.82;62.40;;;9.90;99.90;;;;;;6183379;23;20024;-77
2022/11/19 12:49:13;;;;;;;184.32;77.15;;;9.90;99.90;;;;;;6182933;23;20063;-77
2022/11/19 12:52:01;;;;;;;141.48;64.75;;;10.00;99.90;;;;;;6183283;23;20094;-77
2022/11/19 12:54:37;;;;;;;139.75;68.22;;;9.90;99.90;;;;;;6209341;23;19996;-77
2022/11/19 12:57:35;;;;;;;130.95;64.43;;;10.00;99.90;;;;;;6246651;23;19992;-76
2022/11/19 13:00:07;;;;;;;171.85;79.40;;;10.00;99.90;;;;;;6246469;23;20053;-77
2022/11/19 13:02:52;;;;;;;103.65;53.15;;;10.00;99.90;;;;;;6246298;23;19992;-79
2022/11/19 13:05:21;;;;;;;182.65;82.10;;;9.90;99.90;;;;;;6248055;23;20004;-78
2022/11/19 13:08:03;;;;;;;138.00;64.30;;;10.00;99.90;;;;;;6247623;23;20428;-77
2022/11/19 13:10:37;;;;;;;113.90;54.75;;;10.00;99.90;;;;;;6248186;23;20435;-78
2022/11/19 13:13:08;;;;;;;143.20;70.35;;;10.00;99.90;;;;;;6248021;23;19992;-77
2022/11/19 13:15:46;;;;;;;124.13;65.55;;;10.00;99.90;;;;;;6220733;23;20004;-77